Time;durP1;ratioP1;P1;durP2;ratioP2;P2;SDS_P1;SDS_P2;PMS_P1;PMS_P2;Temp;Humidity;BMP_temperature;BMP_pressure;BME280_temperature;BME280_humidity;BME280_pressure;Samples;Min_cycle;Max_cycle;Signal;HPM_P1;HPM_P2
2023/07/03 00:00:30;;;;;;;8.90;6.00;;;;;;;;;;108135;1254;25376;-80
2023/07/03 00:03:16;;;;;;;9.00;5.60;;;;;;;;;;108527;1251;22521;-80
2023/07/03 00:05:43;;;;;;;17.00;6.40;;;;;;;;;;108118;1251;22561;-80
2023/07/03 00:08:16;;;;;;;11.40;7.10;;;;;;;;;;108115;1251;25543;-80
2023/07/03 00:10:42;;;;;;;8.20;6.30;;;;;;;;;;108099;1251;22524;-80
2023/07/03 00:13:09;;;;;;;9.70;6.20;;;;;;;;;;108143;1252;22558;-80
2023/07/03 00:15:36;;;;;;;8.00;5.60;;;;;;;;;;108103;1249;22678;-80
2023/07/03 00:18:02;;;;;;;9.20;5.60;;;;;;;;;;108016;1253;22568;-80
2023/07/03 00:20:28;;;;;;;8.00;5.60;;;;;;;;;;108118;1251;25466;-80
2023/07/03 00:22:55;;;;;;;6.40;5.00;;;;;;;;;;108148;1251;24223;-80
2023/07/03 00:25:22;;;;;;;11.30;5.40;;;;;;;;;;108177;1250;22643;-80
2023/07/03 00:27:48;;;;;;;7.80;5.30;;;;;;;;;;108459;1251;22487;-80
2023/07/03 00:30:15;;;;;;;7.70;5.50;;;;;;;;;;108710;1252;22597;-80
2023/07/03 00:32:41;;;;;;;6.80;5.30;;;;;;;;;;108044;1250;23058;-80
2023/07/03 00:35:08;;;;;;;6.70;5.20;;;;;;;;;;108243;1254;22567;-80
2023/07/03 00:37:34;;;;;;;7.60;6.10;;;;;;;;;;108136;1251;22575;-80
2023/07/03 00:40:01;;;;;;;8.60;4.90;;;;;;;;;;108172;1254;22594;-80
2023/07/03 00:42:27;;;;;;;7.30;5.80;;;;;;;;;;108134;1250;24214;-80
2023/07/03 00:44:54;;;;;;;7.30;5.70;;;;;;;;;;108139;1250;23467;-80
2023/07/03 00:47:20;;;;;;;8.00;4.90;;;;;;;;;;108169;1251;24195;-80
2023/07/03 00:49:47;;;;;;;6.70;4.70;;;;;;;;;;108075;1250;24190;-80
2023/07/03 00:52:13;;;;;;;8.30;4.80;;;;;;;;;;108176;1251;22533;-80
2023/07/03 00:54:39;;;;;;;8.60;5.50;;;;;;;;;;108190;1251;24250;-80
2023/07/03 00:57:08;;;;;;;9.80;5.60;;;;;;;;;;108177;1251;25635;-80
2023/07/03 00:59:34;;;;;;;6.10;4.80;;;;;;;;;;108051;1251;25449;-80
2023/07/03 01:02:08;;;;;;;7.00;5.60;;;;;;;;;;108139;1254;27877;-80
2023/07/03 01:04:45;;;;;;;7.40;5.70;;;;;;;;;;108047;1251;22701;-80
2023/07/03 01:07:13;;;;;;;9.90;5.50;;;;;;;;;;108329;1250;22495;-80
2023/07/03 01:09:41;;;;;;;7.60;5.60;;;;;;;;;;108088;1251;22532;-80
2023/07/03 01:12:07;;;;;;;6.50;5.60;;;;;;;;;;108135;1254;22704;-80
2023/07/03 01:14:33;;;;;;;6.40;4.90;;;;;;;;;;108106;1256;23006;-80
2023/07/03 01:17:00;;;;;;;10.20;5.40;;;;;;;;;;108035;1253;22536;-80
2023/07/03 01:19:30;;;;;;;9.60;5.70;;;;;;;;;;108078;1252;23037;-80
2023/07/03 01:22:02;;;;;;;6.70;5.00;;;;;;;;;;108044;1251;22825;-79
2023/07/03 01:24:36;;;;;;;8.20;5.90;;;;;;;;;;108098;1253;22533;-80
2023/07/03 01:27:03;;;;;;;9.80;6.10;;;;;;;;;;108172;1251;22866;-80
2023/07/03 01:29:30;;;;;;;10.20;5.50;;;;;;;;;;108085;1251;22546;-80
2023/07/03 01:31:56;;;;;;;11.00;6.10;;;;;;;;;;108058;1253;25360;-79
2023/07/03 01:34:22;;;;;;;7.20;5.50;;;;;;;;;;108091;1252;25310;-79
2023/07/03 01:36:49;;;;;;;15.90;5.90;;;;;;;;;;108154;1250;22531;-80
2023/07/03 01:39:15;;;;;;;11.50;7.30;;;;;;;;;;108080;1251;22619;-80
2023/07/03 01:41:41;;;;;;;10.10;6.00;;;;;;;;;;108190;1252;22577;-80
2023/07/03 01:44:08;;;;;;;8.80;6.00;;;;;;;;;;108085;1249;23125;-80
2023/07/03 01:46:34;;;;;;;8.80;6.10;;;;;;;;;;108161;1254;22525;-79
2023/07/03 01:49:01;;;;;;;12.60;6.40;;;;;;;;;;108110;1252;23222;-80
2023/07/03 01:51:33;;;;;;;10.60;7.90;;;;;;;;;;108204;1254;23369;-80
2023/07/03 01:54:04;;;;;;;10.80;6.90;;;;;;;;;;108124;1254;23009;-80
2023/07/03 01:56:31;;;;;;;18.30;10.10;;;;;;;;;;108179;1252;22531;-80
2023/07/03 01:59:00;;;;;;;21.30;13.20;;;;;;;;;;108152;1250;22545;-79
2023/07/03 02:01:29;;;;;;;16.40;11.30;;;;;;;;;;108183;1251;22531;-79
2023/07/03 02:03:57;;;;;;;13.70;9.30;;;;;;;;;;108051;1253;25282;-80
2023/07/03 02:06:24;;;;;;;13.20;8.70;;;;;;;;;;108148;1253;22561;-79
2023/07/03 02:08:51;;;;;;;11.90;6.90;;;;;;;;;;108091;1252;22617;-79
2023/07/03 02:11:18;;;;;;;12.60;6.80;;;;;;;;;;108231;1254;23257;-79
2023/07/03 02:13:45;;;;;;;8.40;5.80;;;;;;;;;;108254;1266;22643;-80
2023/07/03 02:16:11;;;;;;;8.70;5.50;;;;;;;;;;108236;1252;22610;-79
2023/07/03 02:18:38;;;;;;;8.50;5.60;;;;;;;;;;108198;1251;22596;-80
2023/07/03 02:21:07;;;;;;;7.40;6.00;;;;;;;;;;108247;1251;22563;-79
2023/07/03 02:23:33;;;;;;;7.00;6.20;;;;;;;;;;108219;1251;26461;-80
2023/07/03 02:26:00;;;;;;;8.50;5.50;;;;;;;;;;108225;1253;22694;-80
2023/07/03 02:28:26;;;;;;;9.40;6.10;;;;;;;;;;108338;1250;25486;-79
2023/07/03 02:30:53;;;;;;;10.60;5.80;;;;;;;;;;108203;1253;22526;-80
2023/07/03 02:33:19;;;;;;;9.50;5.60;;;;;;;;;;108244;1251;22532;-79
2023/07/03 02:35:46;;;;;;;9.30;6.20;;;;;;;;;;108093;1252;22758;-79
2023/07/03 02:38:12;;;;;;;9.40;5.80;;;;;;;;;;108222;1254;22539;-79
2023/07/03 02:40:38;;;;;;;12.90;5.60;;;;;;;;;;108204;1253;22525;-80
2023/07/03 02:43:05;;;;;;;9.30;6.20;;;;;;;;;;108216;1251;25497;-80
2023/07/03 02:45:33;;;;;;;8.80;5.80;;;;;;;;;;108152;1253;22544;-80
2023/07/03 02:48:00;;;;;;;8.80;5.30;;;;;;;;;;108968;1252;22531;-79
2023/07/03 02:50:26;;;;;;;9.40;5.40;;;;;;;;;;108159;1253;22595;-79
2023/07/03 02:52:52;;;;;;;8.70;5.80;;;;;;;;;;108159;1251;22522;-80
2023/07/03 02:55:19;;;;;;;8.00;6.10;;;;;;;;;;108178;1252;24471;-80
2023/07/03 02:57:45;;;;;;;8.40;5.50;;;;;;;;;;108091;1251;23210;-79
2023/07/03 03:00:13;;;;;;;7.20;5.10;;;;;;;;;;108192;1253;22565;-79
2023/07/03 03:02:42;;;;;;;7.70;5.20;;;;;;;;;;108237;1252;22624;-79
2023/07/03 03:05:09;;;;;;;9.80;6.00;;;;;;;;;;109155;1249;24341;-79
2023/07/03 03:07:36;;;;;;;8.40;5.80;;;;;;;;;;108132;1253;22569;-79
2023/07/03 03:10:02;;;;;;;10.00;6.60;;;;;;;;;;108143;1250;22658;-79
2023/07/03 03:12:29;;;;;;;9.10;5.40;;;;;;;;;;108242;1253;22610;-79
2023/07/03 03:14:55;;;;;;;11.10;5.50;;;;;;;;;;108203;1251;22527;-80
2023/07/03 03:17:22;;;;;;;9.10;5.80;;;;;;;;;;108334;1253;25364;-80
2023/07/03 03:19:48;;;;;;;7.10;5.30;;;;;;;;;;108164;1251;22549;-80
2023/07/03 03:22:14;;;;;;;10.60;6.60;;;;;;;;;;108147;1250;22154;-81
2023/07/03 03:24:41;;;;;;;8.70;5.90;;;;;;;;;;108160;1250;25295;-80
2023/07/03 03:27:07;;;;;;;6.40;5.50;;;;;;;;;;108175;1253;22517;-80
2023/07/03 03:29:34;;;;;;;10.20;6.00;;;;;;;;;;108159;1251;22574;-80
2023/07/03 03:32:01;;;;;;;13.60;6.70;;;;;;;;;;108150;1254;22529;-80
2023/07/03 03:34:27;;;;;;;8.40;5.30;;;;;;;;;;108172;1253;26156;-80
2023/07/03 03:36:54;;;;;;;10.70;6.50;;;;;;;;;;108065;1252;22564;-80
2023/07/03 03:39:21;;;;;;;7.20;5.60;;;;;;;;;;108102;1251;23395;-80
2023/07/03 03:41:47;;;;;;;11.00;5.80;;;;;;;;;;108152;1250;23211;-80
2023/07/03 03:44:13;;;;;;;9.90;6.10;;;;;;;;;;108157;1250;24333;-80
2023/07/03 03:46:40;;;;;;;7.70;5.10;;;;;;;;;;108213;1253;23047;-80
2023/07/03 03:49:09;;;;;;;9.30;5.70;;;;;;;;;;108193;1253;24347;-80
2023/07/03 03:51:35;;;;;;;10.80;6.10;;;;;;;;;;108153;1253;23003;-80
2023/07/03 03:54:02;;;;;;;7.40;5.60;;;;;;;;;;108188;1253;22536;-80
2023/07/03 03:56:28;;;;;;;6.20;5.50;;;;;;;;;;108170;1251;22693;-80
2023/07/03 03:58:54;;;;;;;7.40;5.50;;;;;;;;;;108237;1253;22535;-80
2023/07/03 04:01:21;;;;;;;11.00;5.40;;;;;;;;;;108168;1251;23306;-80
2023/07/03 04:03:47;;;;;;;8.20;5.70;;;;;;;;;;108181;1251;22670;-80
2023/07/03 04:06:16;;;;;;;6.80;5.70;;;;;;;;;;108168;1253;22598;-80
2023/07/03 04:08:42;;;;;;;9.10;5.70;;;;;;;;;;108130;1251;22671;-80
2023/07/03 04:11:09;;;;;;;10.40;5.80;;;;;;;;;;108142;1251;22621;-80
2023/07/03 04:13:35;;;;;;;10.70;5.70;;;;;;;;;;108136;1253;25265;-80
2023/07/03 04:16:02;;;;;;;7.40;5.90;;;;;;;;;;108170;1251;22540;-80
2023/07/03 04:18:29;;;;;;;9.00;6.00;;;;;;;;;;108092;1250;25392;-80
2023/07/03 04:20:55;;;;;;;8.80;5.50;;;;;;;;;;108053;1251;22678;-80
2023/07/03 04:23:22;;;;;;;6.30;5.10;;;;;;;;;;108111;1253;22592;-80
2023/07/03 04:25:48;;;;;;;7.60;5.60;;;;;;;;;;108138;1251;22772;-80
2023/07/03 04:28:15;;;;;;;11.30;5.30;;;;;;;;;;108149;1251;22748;-80
2023/07/03 04:30:42;;;;;;;5.30;4.40;;;;;;;;;;108162;1252;22572;-80
2023/07/03 04:33:09;;;;;;;10.40;4.70;;;;;;;;;;108214;1251;24322;-80
2023/07/03 04:35:36;;;;;;;6.30;4.80;;;;;;;;;;108182;1253;23269;-80
2023/07/03 04:38:03;;;;;;;6.20;4.40;;;;;;;;;;108155;1250;22553;-80
2023/07/03 04:40:29;;;;;;;6.10;4.80;;;;;;;;;;108201;1251;22556;-80
2023/07/03 04:42:56;;;;;;;8.30;5.10;;;;;;;;;;108046;1250;22547;-80
2023/07/03 04:45:24;;;;;;;6.00;4.50;;;;;;;;;;108197;1253;23367;-80
2023/07/03 04:47:51;;;;;;;8.00;5.10;;;;;;;;;;108169;1253;22785;-81
2023/07/03 04:50:18;;;;;;;8.30;5.30;;;;;;;;;;108510;1253;22651;-80
2023/07/03 04:52:46;;;;;;;7.40;4.70;;;;;;;;;;108159;1253;22768;-80
2023/07/03 04:55:12;;;;;;;7.30;4.40;;;;;;;;;;108079;1256;25274;-80
2023/07/03 04:57:39;;;;;;;7.80;6.40;;;;;;;;;;108102;1251;22534;-80
2023/07/03 05:00:11;;;;;;;9.30;6.60;;;;;;;;;;108134;1253;22528;-80
2023/07/03 05:02:38;;;;;;;11.10;6.80;;;;;;;;;;108251;1255;22669;-80
2023/07/03 05:05:05;;;;;;;8.80;5.00;;;;;;;;;;108166;1255;22649;-80
2023/07/03 05:07:31;;;;;;;6.20;4.60;;;;;;;;;;108150;1251;22615;-80
2023/07/03 05:09:58;;;;;;;11.90;6.30;;;;;;;;;;108260;1251;22538;-81
2023/07/03 05:12:24;;;;;;;10.30;6.30;;;;;;;;;;108278;1252;22801;-81
2023/07/03 05:14:51;;;;;;;7.70;4.60;;;;;;;;;;108267;1252;22523;-80
2023/07/03 05:17:17;;;;;;;9.60;5.60;;;;;;;;;;108061;1251;22575;-80
2023/07/03 05:19:43;;;;;;;6.30;4.40;;;;;;;;;;108316;1253;22553;-80
2023/07/03 05:22:10;;;;;;;9.10;4.90;;;;;;;;;;108212;1251;24336;-81
2023/07/03 05:24:36;;;;;;;7.80;5.20;;;;;;;;;;108262;1251;22906;-81
2023/07/03 05:27:02;;;;;;;10.60;5.60;;;;;;;;;;108192;1251;24171;-80
2023/07/03 05:29:30;;;;;;;9.90;5.20;;;;;;;;;;108181;1251;22566;-80
2023/07/03 05:31:57;;;;;;;9.40;5.60;;;;;;;;;;108210;1252;25239;-80
2023/07/03 05:34:24;;;;;;;11.00;5.60;;;;;;;;;;108232;1255;23770;-80
2023/07/03 05:36:50;;;;;;;8.00;5.10;;;;;;;;;;108271;1253;25255;-81
2023/07/03 05:39:16;;;;;;;7.70;5.10;;;;;;;;;;108301;1251;25486;-80
2023/07/03 05:41:43;;;;;;;7.80;4.00;;;;;;;;;;108378;1251;23216;-80
2023/07/03 05:44:09;;;;;;;4.50;3.80;;;;;;;;;;108075;1253;24200;-80
2023/07/03 05:46:36;;;;;;;7.20;4.60;;;;;;;;;;108167;1251;24113;-80
2023/07/03 05:49:02;;;;;;;6.90;4.70;;;;;;;;;;108358;1253;23961;-80
2023/07/03 05:51:29;;;;;;;8.70;4.40;;;;;;;;;;108363;1251;25349;-80
2023/07/03 05:53:55;;;;;;;11.20;4.80;;;;;;;;;;108348;1251;25439;-80
2023/07/03 05:56:21;;;;;;;5.80;4.10;;;;;;;;;;108514;1251;25384;-80
2023/07/03 05:58:48;;;;;;;4.90;3.90;;;;;;;;;;108676;1255;22555;-80
2023/07/03 06:01:14;;;;;;;8.70;3.90;;;;;;;;;;108688;1256;23221;-80
2023/07/03 06:03:42;;;;;;;7.00;4.50;;;;;;;;;;108776;1251;22640;-80
2023/07/03 06:06:09;;;;;;;5.70;3.50;;;;;;;;;;110011;1251;23058;-81
2023/07/03 06:08:35;;;;;;;5.70;3.50;;;;;;;;;;110583;1253;22406;-81
2023/07/03 06:11:02;;;;;;;5.40;3.90;;;;;;;;;;110556;1251;22415;-81
2023/07/03 06:13:28;;;;;;;4.80;3.80;;;;;;;;;;110618;1251;22418;-81
2023/07/03 06:15:56;;;;;;;5.90;3.70;;;;;;;;;;110399;1251;22560;-81
2023/07/03 06:18:23;;;;;;;4.00;3.30;;;;;;;;;;110573;1252;22426;-81
2023/07/03 06:20:49;;;;;;;5.80;3.30;;;;;;;;;;109493;1250;23218;-80
2023/07/03 06:23:15;;;;;;;5.40;3.70;;;;;;;;;;108543;1255;22616;-80
2023/07/03 06:25:42;;;;;;;6.40;3.70;;;;;;;;;;108171;1257;22552;-80
2023/07/03 06:28:08;;;;;;;6.90;3.60;;;;;;;;;;108282;1253;22573;-79
2023/07/03 06:30:35;;;;;;;14.30;3.90;;;;;;;;;;108495;1253;24290;-80
2023/07/03 06:33:01;;;;;;;6.60;3.50;;;;;;;;;;108659;1251;22668;-81
2023/07/03 06:35:27;;;;;;;6.30;3.70;;;;;;;;;;108342;1252;22693;-80
2023/07/03 06:37:55;;;;;;;7.20;4.10;;;;;;;;;;108416;1253;22549;-80
2023/07/03 06:40:22;;;;;;;6.70;3.60;;;;;;;;;;108536;1255;22605;-81
2023/07/03 06:42:48;;;;;;;6.10;3.20;;;;;;;;;;108482;1254;22624;-80
2023/07/03 06:45:15;;;;;;;7.00;3.60;;;;;;;;;;108379;1255;23282;-80
2023/07/03 06:47:41;;;;;;;10.10;3.40;;;;;;;;;;108311;1252;23740;-80
2023/07/03 06:50:08;;;;;;;5.90;3.40;;;;;;;;;;108411;1251;25315;-80
2023/07/03 06:52:35;;;;;;;9.00;4.10;;;;;;;;;;108350;1255;26507;-80
2023/07/03 06:55:02;;;;;;;6.80;4.00;;;;;;;;;;108467;1251;22587;-80
2023/07/03 06:57:29;;;;;;;7.10;4.00;;;;;;;;;;110509;1251;22336;-81
2023/07/03 06:59:55;;;;;;;6.10;3.90;;;;;;;;;;110526;1251;23570;-81
2023/07/03 07:02:22;;;;;;;8.40;4.00;;;;;;;;;;110602;1251;23229;-81
2023/07/03 07:04:50;;;;;;;5.30;3.20;;;;;;;;;;110640;1251;23026;-81
2023/07/03 07:07:17;;;;;;;;;;;;;;;;;;110305;1253;146044;-81
2023/07/03 07:09:43;;;;;;;8.10;3.80;;;;;;;;;;110578;1251;22238;-81
2023/07/03 07:12:10;;;;;;;6.20;3.60;;;;;;;;;;110293;1251;23420;-81
2023/07/03 07:14:36;;;;;;;8.40;3.60;;;;;;;;;;108587;1253;22564;-80
2023/07/03 07:17:03;;;;;;;6.80;4.30;;;;;;;;;;108362;1251;23099;-81
2023/07/03 07:19:29;;;;;;;5.90;3.90;;;;;;;;;;108467;1251;23342;-80
2023/07/03 07:21:56;;;;;;;6.10;3.60;;;;;;;;;;108498;1255;25236;-81
2023/07/03 07:24:23;;;;;;;5.20;3.60;;;;;;;;;;108454;1255;22607;-80
2023/07/03 07:26:54;;;;;;;6.50;4.00;;;;;;;;;;108384;1255;22520;-80
2023/07/03 07:29:25;;;;;;;5.10;3.70;;;;;;;;;;108438;1251;25400;-81
2023/07/03 07:31:55;;;;;;;4.90;3.40;;;;;;;;;;108579;1251;23132;-81
2023/07/03 07:34:21;;;;;;;6.80;3.70;;;;;;;;;;108410;1251;24123;-81
2023/07/03 07:36:48;;;;;;;7.80;4.20;;;;;;;;;;108410;1252;22510;-81
2023/07/03 07:39:14;;;;;;;5.70;3.80;;;;;;;;;;108426;1256;23017;-81
2023/07/03 07:41:41;;;;;;;7.30;3.90;;;;;;;;;;108506;1256;22529;-81
2023/07/03 07:44:07;;;;;;;6.60;4.60;;;;;;;;;;108457;1251;22675;-81
2023/07/03 07:46:36;;;;;;;7.20;5.30;;;;;;;;;;108468;1254;22685;-81
2023/07/03 07:49:02;;;;;;;8.20;4.70;;;;;;;;;;108385;1253;22517;-81
2023/07/03 07:51:29;;;;;;;8.40;5.30;;;;;;;;;;108538;1251;22586;-81
2023/07/03 07:53:55;;;;;;;10.40;5.80;;;;;;;;;;108405;1253;22579;-81
2023/07/03 07:56:22;;;;;;;13.00;4.80;;;;;;;;;;108390;1251;23257;-81
2023/07/03 07:58:49;;;;;;;8.40;5.20;;;;;;;;;;108427;1251;22861;-81
2023/07/03 08:01:15;;;;;;;12.60;6.10;;;;;;;;;;108624;1255;23325;-81
2023/07/03 08:03:42;;;;;;;12.40;6.90;;;;;;;;;;108652;1251;22551;-81
2023/07/03 08:06:08;;;;;;;10.70;6.10;;;;;;;;;;108413;1250;23329;-82
2023/07/03 08:08:35;;;;;;;10.50;6.20;;;;;;;;;;108391;1251;23089;-81
2023/07/03 08:11:01;;;;;;;12.80;5.90;;;;;;;;;;108408;1251;22709;-82
2023/07/03 08:13:28;;;;;;;11.40;5.50;;;;;;;;;;108432;1255;24901;-82
2023/07/03 08:15:55;;;;;;;14.60;6.50;;;;;;;;;;108272;1255;22600;-81
2023/07/03 08:18:21;;;;;;;10.10;6.50;;;;;;;;;;108352;1250;23919;-81
2023/07/03 08:20:48;;;;;;;8.10;5.10;;;;;;;;;;108502;1253;22603;-81
2023/07/03 08:23:14;;;;;;;10.00;6.40;;;;;;;;;;108423;1255;22909;-82
2023/07/03 08:25:41;;;;;;;8.00;5.00;;;;;;;;;;108305;1251;24222;-81
2023/07/03 08:28:08;;;;;;;17.70;11.40;;;;;;;;;;108305;1251;22624;-81
2023/07/03 08:30:34;;;;;;;10.20;6.30;;;;;;;;;;108539;1254;22549;-81
2023/07/03 08:33:01;;;;;;;10.60;5.50;;;;;;;;;;108490;1251;22610;-81
2023/07/03 08:35:27;;;;;;;7.70;5.60;;;;;;;;;;108449;1251;22522;-81
2023/07/03 08:37:54;;;;;;;8.70;6.20;;;;;;;;;;108301;1251;22575;-81
2023/07/03 08:40:21;;;;;;;8.70;5.80;;;;;;;;;;108558;1251;22507;-81
2023/07/03 08:42:48;;;;;;;8.70;6.30;;;;;;;;;;108392;1251;23251;-81
2023/07/03 08:45:15;;;;;;;9.50;5.90;;;;;;;;;;108352;1254;22521;-81
2023/07/03 08:47:41;;;;;;;11.30;5.70;;;;;;;;;;108491;1251;22253;-81
2023/07/03 08:50:08;;;;;;;16.50;6.20;;;;;;;;;;110350;1256;25463;-82
2023/07/03 08:52:37;;;;;;;15.60;6.40;;;;;;;;;;108350;1251;22584;-82
2023/07/03 08:55:04;;;;;;;7.20;5.70;;;;;;;;;;108371;1253;26559;-82
2023/07/03 08:57:30;;;;;;;12.90;7.50;;;;;;;;;;108381;1255;22529;-81
2023/07/03 08:59:57;;;;;;;9.60;6.60;;;;;;;;;;108315;1251;22517;-82
2023/07/03 09:02:28;;;;;;;10.50;6.10;;;;;;;;;;108450;1255;23036;-82
2023/07/03 09:04:58;;;;;;;15.10;7.70;;;;;;;;;;109914;1251;22585;-82
2023/07/03 09:07:28;;;;;;;13.00;6.50;;;;;;;;;;110538;1251;22427;-82
2023/07/03 09:09:54;;;;;;;11.30;6.80;;;;;;;;;;108536;1251;22530;-81
2023/07/03 09:12:25;;;;;;;12.30;7.20;;;;;;;;;;108449;1256;22528;-81
2023/07/03 09:14:53;;;;;;;9.90;6.90;;;;;;;;;;108555;1251;22527;-82
2023/07/03 09:17:19;;;;;;;;;;;;;;;;;;108628;1251;22554;-82
2023/07/03 09:19:46;;;;;;;12.50;6.60;;;;;;;;;;108788;1251;24305;-82
2023/07/03 09:22:23;;;;;;;11.20;7.50;;;;;;;;;;108791;1251;22627;-81
2023/07/03 09:24:49;;;;;;;12.50;7.70;;;;;;;;;;108626;1251;23298;-82
2023/07/03 09:27:20;;;;;;;12.80;6.90;;;;;;;;;;108642;1255;23250;-81
2023/07/03 09:29:46;;;;;;;16.80;7.60;;;;;;;;;;109005;1251;22478;-81
2023/07/03 09:32:21;;;;;;;12.00;7.50;;;;;;;;;;110460;1251;22359;-82
2023/07/03 09:35:06;;;;;;;11.60;7.60;;;;;;;;;;110535;1250;22425;-82
2023/07/03 09:37:53;;;;;;;10.40;7.00;;;;;;;;;;108633;1251;22690;-82
2023/07/03 09:40:23;;;;;;;14.40;7.80;;;;;;;;;;108864;1251;22576;-82
2023/07/03 09:42:50;;;;;;;11.60;7.40;;;;;;;;;;108464;1251;22552;-82
2023/07/03 09:45:20;;;;;;;16.20;7.80;;;;;;;;;;108407;1251;22577;-82
2023/07/03 09:47:48;;;;;;;8.90;6.90;;;;;;;;;;108608;1251;23397;-82
2023/07/03 09:50:14;;;;;;;11.70;7.40;;;;;;;;;;108495;1251;22537;-82
2023/07/03 09:52:44;;;;;;;14.40;8.10;;;;;;;;;;108468;1251;23536;-81
2023/07/03 09:55:11;;;;;;;14.40;7.40;;;;;;;;;;108232;1251;22668;-83
2023/07/03 09:57:37;;;;;;;9.70;7.50;;;;;;;;;;108312;1267;22558;-82
2023/07/03 10:00:11;;;;;;;13.30;8.60;;;;;;;;;;108779;1250;23080;-82
2023/07/03 10:02:39;;;;;;;15.40;8.90;;;;;;;;;;110643;1251;22420;-82
2023/07/03 10:05:06;;;;;;;14.30;7.80;;;;;;;;;;110581;1251;22343;-83
2023/07/03 10:07:33;;;;;;;11.30;7.10;;;;;;;;;;110538;1251;22400;-82
2023/07/03 10:09:59;;;;;;;14.40;7.50;;;;;;;;;;108742;1251;23609;-82
2023/07/03 10:12:33;;;;;;;10.80;8.10;;;;;;;;;;108398;1251;24246;-81
2023/07/03 10:15:19;;;;;;;11.10;7.70;;;;;;;;;;108319;1251;22579;-82
2023/07/03 10:17:47;;;;;;;12.00;6.80;;;;;;;;;;108305;1251;22532;-81
2023/07/03 10:20:20;;;;;;;11.60;7.80;;;;;;;;;;108496;1251;22936;-82
2023/07/03 10:22:49;;;;;;;12.10;7.40;;;;;;;;;;108413;1250;22584;-81
2023/07/03 10:25:17;;;;;;;11.80;8.10;;;;;;;;;;108189;1251;22583;-82
2023/07/03 10:27:43;;;;;;;11.50;7.20;;;;;;;;;;110407;1251;22294;-82
2023/07/03 10:30:11;;;;;;;11.80;7.40;;;;;;;;;;110607;1251;22458;-81
2023/07/03 10:32:37;;;;;;;11.40;6.70;;;;;;;;;;110648;1251;23078;-82
2023/07/03 10:35:06;;;;;;;13.90;8.70;;;;;;;;;;110483;1251;22477;-82
2023/07/03 10:37:37;;;;;;;15.60;7.60;;;;;;;;;;110467;1251;22506;-82
2023/07/03 10:40:17;;;;;;;12.10;7.20;;;;;;;;;;108507;1251;22672;-82
2023/07/03 10:42:56;;;;;;;10.40;7.30;;;;;;;;;;108412;1254;23512;-82
2023/07/03 10:45:23;;;;;;;9.30;6.90;;;;;;;;;;108201;1251;22628;-82
2023/07/03 10:47:50;;;;;;;11.70;8.20;;;;;;;;;;108330;1251;22648;-82
2023/07/03 10:50:19;;;;;;;10.30;7.30;;;;;;;;;;108363;1253;22671;-82
2023/07/03 10:52:57;;;;;;;12.20;7.80;;;;;;;;;;108398;1251;22540;-81
2023/07/03 10:55:28;;;;;;;8.60;7.30;;;;;;;;;;108419;1256;25275;-82
2023/07/03 10:58:00;;;;;;;12.50;8.20;;;;;;;;;;108359;1251;23002;-82
2023/07/03 11:00:30;;;;;;;11.70;8.10;;;;;;;;;;108459;1252;22569;-82
2023/07/03 11:03:23;;;;;;;11.50;8.20;;;;;;;;;;108686;1251;27248;-82
2023/07/03 11:06:19;;;;;;;13.60;7.60;;;;;;;;;;108760;1251;25974;-82
2023/07/03 11:08:46;;;;;;;11.20;7.20;;;;;;;;;;108266;1251;24225;-82
2023/07/03 11:11:25;;;;;;;13.10;8.00;;;;;;;;;;108554;1251;23264;-82
2023/07/03 11:13:55;;;;;;;10.40;7.60;;;;;;;;;;108394;1254;22619;-82
2023/07/03 11:16:23;;;;;;;12.40;8.40;;;;;;;;;;108136;1251;22764;-81
2023/07/03 11:18:49;;;;;;;10.30;7.80;;;;;;;;;;108428;1251;22615;-82
2023/07/03 11:21:16;;;;;;;12.80;8.40;;;;;;;;;;108455;1251;22555;-81
2023/07/03 11:23:42;;;;;;;13.40;8.00;;;;;;;;;;108291;1251;22593;-81
2023/07/03 11:26:12;;;;;;;12.50;7.70;;;;;;;;;;108433;1251;22564;-81
2023/07/03 11:28:39;;;;;;;11.90;8.10;;;;;;;;;;108329;1251;26424;-81
2023/07/03 11:31:06;;;;;;;12.80;8.00;;;;;;;;;;108699;1251;22531;-82
2023/07/03 11:33:33;;;;;;;11.00;8.50;;;;;;;;;;108282;1251;22518;-82
2023/07/03 11:35:59;;;;;;;10.20;7.40;;;;;;;;;;108168;1251;22697;-82
2023/07/03 11:38:26;;;;;;;12.70;7.90;;;;;;;;;;108391;1251;22571;-81
2023/07/03 11:40:53;;;;;;;13.40;7.90;;;;;;;;;;108563;1251;22691;-81
2023/07/03 11:43:22;;;;;;;11.10;7.70;;;;;;;;;;108484;1251;24370;-81
2023/07/03 11:45:50;;;;;;;13.30;8.10;;;;;;;;;;108445;1251;22675;-82
2023/07/03 11:48:25;;;;;;;13.40;8.20;;;;;;;;;;108384;1251;22529;-81
2023/07/03 11:51:02;;;;;;;13.60;7.90;;;;;;;;;;108596;1250;22496;-81
2023/07/03 11:53:34;;;;;;;14.70;8.50;;;;;;;;;;108469;1251;22668;-81
2023/07/03 11:56:01;;;;;;;12.20;7.50;;;;;;;;;;108265;1251;23198;-81
2023/07/03 11:58:29;;;;;;;13.30;7.50;;;;;;;;;;108393;1251;22595;-81
2023/07/03 12:01:15;;;;;;;13.00;7.70;;;;;;;;;;108410;1252;22639;-81
2023/07/03 12:03:52;;;;;;;13.60;8.50;;;;;;;;;;108325;1251;22606;-81
2023/07/03 12:06:37;;;;;;;11.20;7.60;;;;;;;;;;108316;1251;22547;-81
2023/07/03 12:09:23;;;;;;;10.90;7.20;;;;;;;;;;108411;1250;22636;-81
2023/07/03 12:12:06;;;;;;;14.10;7.60;;;;;;;;;;108408;1250;22596;-81
2023/07/03 12:14:39;;;;;;;8.90;6.90;;;;;;;;;;108453;1254;22625;-82
2023/07/03 12:17:17;;;;;;;10.80;7.80;;;;;;;;;;108377;1251;23056;-82
2023/07/03 12:19:44;;;;;;;12.70;7.80;;;;;;;;;;108295;1251;25221;-82
2023/07/03 12:22:40;;;;;;;9.30;6.60;;;;;;;;;;108567;1250;25349;-82
2023/07/03 12:25:07;;;;;;;13.50;7.90;;;;;;;;;;108278;1251;22778;-82
2023/07/03 12:27:36;;;;;;;12.60;8.20;;;;;;;;;;108335;1251;25324;-82
2023/07/03 12:30:03;;;;;;;12.70;7.70;;;;;;;;;;110618;1251;22261;-82
2023/07/03 12:32:31;;;;;;;10.70;7.60;;;;;;;;;;110506;1251;22475;-82
2023/07/03 12:35:13;;;;;;;18.10;8.60;;;;;;;;;;110606;1251;22470;-81
2023/07/03 12:37:40;;;;;;;12.10;7.70;;;;;;;;;;110575;1250;22448;-82
2023/07/03 12:40:08;;;;;;;13.50;7.70;;;;;;;;;;110576;1251;22435;-82
2023/07/03 12:42:35;;;;;;;10.90;7.50;;;;;;;;;;110511;1252;22389;-82
2023/07/03 12:45:12;;;;;;;12.50;7.40;;;;;;;;;;110592;1251;22495;-82
2023/07/03 12:47:39;;;;;;;;;;;;;;;;;;110585;1251;22526;-82
2023/07/03 12:50:05;;;;;;;10.70;7.50;;;;;;;;;;110575;1251;22526;-82
2023/07/03 12:52:32;;;;;;;12.40;7.30;;;;;;;;;;110636;1251;22247;-82
2023/07/03 12:55:01;;;;;;;12.20;7.40;;;;;;;;;;110652;1251;22427;-82
2023/07/03 12:57:28;;;;;;;11.00;7.80;;;;;;;;;;110650;1251;23142;-82
2023/07/03 12:59:54;;;;;;;13.10;8.40;;;;;;;;;;110548;1251;22309;-82
2023/07/03 13:02:24;;;;;;;26.80;9.30;;;;;;;;;;110504;1251;22488;-82
2023/07/03 13:04:54;;;;;;;13.40;8.30;;;;;;;;;;110563;1251;22468;-82
2023/07/03 13:07:20;;;;;;;11.80;8.00;;;;;;;;;;110634;1251;22057;-82
2023/07/03 13:09:48;;;;;;;12.10;7.90;;;;;;;;;;110646;1250;22178;-82
2023/07/03 13:12:21;;;;;;;11.40;7.00;;;;;;;;;;110475;1251;23160;-81
2023/07/03 13:14:59;;;;;;;13.90;7.40;;;;;;;;;;110576;1250;22475;-82
2023/07/03 13:17:28;;;;;;;12.10;6.70;;;;;;;;;;110620;1251;22492;-82
2023/07/03 13:19:54;;;;;;;11.50;7.90;;;;;;;;;;110624;1251;22472;-82
2023/07/03 13:22:21;;;;;;;13.20;8.20;;;;;;;;;;110619;1251;22388;-82
2023/07/03 13:24:48;;;;;;;18.10;7.80;;;;;;;;;;108869;1251;23371;-81
2023/07/03 13:27:25;;;;;;;12.40;8.50;;;;;;;;;;108211;1251;22563;-81
2023/07/03 13:29:57;;;;;;;11.80;7.60;;;;;;;;;;108229;1251;25255;-81
2023/07/03 13:32:25;;;;;;;15.90;8.40;;;;;;;;;;108218;1251;22580;-82
2023/07/03 13:34:52;;;;;;;12.10;6.80;;;;;;;;;;107977;1251;22492;-81
2023/07/03 13:37:25;;;;;;;15.50;7.40;;;;;;;;;;108217;1251;25335;-82
2023/07/03 13:39:52;;;;;;;12.70;7.30;;;;;;;;;;108249;1251;22552;-81
2023/07/03 13:42:18;;;;;;;14.70;8.50;;;;;;;;;;108211;1251;22532;-82
2023/07/03 13:44:45;;;;;;;13.70;7.80;;;;;;;;;;108201;1251;23774;-81
2023/07/03 13:47:11;;;;;;;13.20;6.50;;;;;;;;;;108126;1251;22518;-81
2023/07/03 13:49:39;;;;;;;11.90;7.10;;;;;;;;;;108169;1251;23258;-81
2023/07/03 13:52:05;;;;;;;13.20;7.80;;;;;;;;;;108205;1251;22646;-81
2023/07/03 13:54:35;;;;;;;12.00;7.70;;;;;;;;;;108194;1251;25238;-82
2023/07/03 13:57:03;;;;;;;11.20;7.10;;;;;;;;;;108319;1251;25501;-81
2023/07/03 13:59:29;;;;;;;15.80;7.50;;;;;;;;;;108233;1251;22553;-81
2023/07/03 14:01:55;;;;;;;12.20;8.30;;;;;;;;;;108284;1251;23200;-81
2023/07/03 14:04:22;;;;;;;11.70;7.60;;;;;;;;;;108305;1254;22538;-81
2023/07/03 14:06:48;;;;;;;14.10;7.90;;;;;;;;;;108245;1249;22573;-81
2023/07/03 14:09:14;;;;;;;15.00;7.30;;;;;;;;;;108272;1251;22585;-81
2023/07/03 14:11:41;;;;;;;12.70;7.40;;;;;;;;;;108273;1250;23628;-81
2023/07/03 14:14:08;;;;;;;10.30;7.60;;;;;;;;;;108223;1251;22532;-82
2023/07/03 14:16:35;;;;;;;12.00;7.80;;;;;;;;;;108329;1251;23221;-82
2023/07/03 14:19:01;;;;;;;10.60;7.20;;;;;;;;;;108584;1251;24347;-81
2023/07/03 14:21:28;;;;;;;10.30;7.00;;;;;;;;;;108502;1255;22624;-81
2023/07/03 14:23:55;;;;;;;13.70;8.40;;;;;;;;;;108300;1251;22535;-81
2023/07/03 14:26:23;;;;;;;11.60;7.90;;;;;;;;;;108288;1251;25502;-81
2023/07/03 14:28:49;;;;;;;12.10;8.00;;;;;;;;;;108290;1251;22589;-81